sensor_id;sensor_type;location;lat;lon;timestamp;pressure;altitude;pressure_sealevel;temperature;humidity
2036;BME280;23642;42.658;23.350;2023-02-19T00:00:12;55435.28;;;-146.31;62.83
2036;BME280;23642;42.658;23.350;2023-02-19T00:02:40;55437.34;;;-146.31;62.76
2036;BME280;23642;42.658;23.350;2023-02-19T00:05:07;55414.63;;;-146.31;63.45
2036;BME280;23642;42.658;23.350;2023-02-19T00:07:34;55416.69;;;-146.31;64.06
2036;BME280;23642;42.658;23.350;2023-02-19T00:10:01;55406.38;;;-146.31;64.10
2036;BME280;23642;42.658;23.350;2023-02-19T00:12:27;55393.97;;;-146.31;64.40
2036;BME280;23642;42.658;23.350;2023-02-19T00:14:54;55389.84;;;-146.31;64.01
2036;BME280;23642;42.658;23.350;2023-02-19T00:17:24;55373.31;;;-146.31;65.17
2036;BME280;23642;42.658;23.350;2023-02-19T00:19:51;55383.66;;;-146.31;65.80
2036;BME280;23642;42.658;23.350;2023-02-19T00:22:17;55371.25;;;-146.31;64.93
2036;BME280;23642;42.658;23.350;2023-02-19T00:24:44;55367.13;;;-146.31;65.79
2036;BME280;23642;42.658;23.350;2023-02-19T00:27:11;55348.53;;;-146.31;66.53
2036;BME280;23642;42.658;23.350;2023-02-19T00:29:38;55338.22;;;-146.31;66.86
2036;BME280;23642;42.658;23.350;2023-02-19T00:32:04;55332.03;;;-146.31;66.94
2036;BME280;23642;42.658;23.350;2023-02-19T00:34:32;55334.09;;;-146.31;67.40
2036;BME280;23642;42.658;23.350;2023-02-19T00:36:59;55311.38;;;-146.31;67.57
2036;BME280;23642;42.658;23.350;2023-02-19T00:39:29;55307.22;;;-146.31;68.13
2036;BME280;23642;42.658;23.350;2023-02-19T00:41:55;55263.88;;;-146.31;67.78
2036;BME280;23642;42.658;23.350;2023-02-19T00:44:28;55296.91;;;-146.31;67.25
2036;BME280;23642;42.658;23.350;2023-02-19T00:46:55;55309.31;;;-146.31;68.48
2036;BME280;23642;42.658;23.350;2023-02-19T00:49:22;55274.19;;;-146.31;69.38
2036;BME280;23642;42.658;23.350;2023-02-19T00:51:51;55278.31;;;-146.31;69.98
2036;BME280;23642;42.658;23.350;2023-02-19T00:54:19;55239.06;;;-146.31;70.32
2036;BME280;23642;42.658;23.350;2023-02-19T00:56:47;55237.00;;;-146.31;70.95
2036;BME280;23642;42.658;23.350;2023-02-19T00:59:14;55212.22;;;-146.31;70.87
2036;BME280;23642;42.658;23.350;2023-02-19T01:01:41;55187.44;;;-146.31;70.78
2036;BME280;23642;42.658;23.350;2023-02-19T01:04:09;55179.19;;;-146.31;70.58
2036;BME280;23642;42.658;23.350;2023-02-19T01:06:36;55191.56;;;-146.31;69.98
2036;BME280;23642;42.658;23.350;2023-02-19T01:09:04;55162.66;;;-146.31;68.21
2036;BME280;23642;42.658;23.350;2023-02-19T01:11:31;55152.34;;;-146.31;66.98
2036;BME280;23642;42.658;23.350;2023-02-19T01:13:58;55197.78;;;-146.31;67.18
2036;BME280;23642;42.658;23.350;2023-02-19T01:16:25;55195.72;;;-146.31;68.60
2036;BME280;23642;42.658;23.350;2023-02-19T01:18:52;55179.19;;;-146.31;68.86
2036;BME280;23642;42.658;23.350;2023-02-19T01:21:22;55191.56;;;-146.31;68.70
2036;BME280;23642;42.658;23.350;2023-02-19T01:23:50;55228.75;;;-146.31;69.92
2036;BME280;23642;42.658;23.350;2023-02-19T01:26:20;55191.56;;;-146.31;69.00
2036;BME280;23642;42.658;23.350;2023-02-19T01:28:48;55208.09;;;-146.31;69.18
2036;BME280;23642;42.658;23.350;2023-02-19T01:31:18;55177.13;;;-146.31;69.42
2036;BME280;23642;42.658;23.350;2023-02-19T01:33:45;55206.03;;;-146.31;69.90
2036;BME280;23642;42.658;23.350;2023-02-19T01:36:13;55156.47;;;-146.31;68.83
2036;BME280;23642;42.658;23.350;2023-02-19T01:38:40;55187.44;;;-146.31;70.05
2036;BME280;23642;42.658;23.350;2023-02-19T01:41:10;55189.50;;;-146.31;70.70
2036;BME280;23642;42.658;23.350;2023-02-19T01:46:32;55162.66;;;-146.31;71.77
2036;BME280;23642;42.658;23.350;2023-02-19T01:49:03;55148.22;;;-146.31;71.70
2036;BME280;23642;42.658;23.350;2023-02-19T01:51:33;55146.13;;;-146.31;70.33
2036;BME280;23642;42.658;23.350;2023-02-19T01:54:04;55170.94;;;-146.31;71.40
2036;BME280;23642;42.658;23.350;2023-02-19T01:56:33;55144.06;;;-146.31;72.07
2036;BME280;23642;42.658;23.350;2023-02-19T01:59:02;55144.06;;;-146.31;72.72
2036;BME280;23642;42.658;23.350;2023-02-19T02:01:31;55104.84;;;-146.31;70.65
2036;BME280;23642;42.658;23.350;2023-02-19T02:03:58;55106.91;;;-146.31;69.84
2036;BME280;23642;42.658;23.350;2023-02-19T02:06:29;55146.13;;;-146.31;69.88
2036;BME280;23642;42.658;23.350;2023-02-19T02:08:57;55117.22;;;-146.31;69.45
2036;BME280;23642;42.658;23.350;2023-02-19T02:11:45;55133.75;;;-146.31;69.38
2036;BME280;23642;42.658;23.350;2023-02-19T02:14:13;55108.97;;;-146.31;68.03
2036;BME280;23642;42.658;23.350;2023-02-19T02:16:48;55148.22;;;-146.31;68.23
2036;BME280;23642;42.658;23.350;2023-02-19T02:19:30;55154.41;;;-146.31;70.11
2036;BME280;23642;42.658;23.350;2023-02-19T02:22:02;55144.06;;;-146.31;70.35
2036;BME280;23642;42.658;23.350;2023-02-19T02:24:54;55125.50;;;-146.31;70.73
2036;BME280;23642;42.658;23.350;2023-02-19T02:27:37;55142.00;;;-146.31;71.15
2036;BME280;23642;42.658;23.350;2023-02-19T02:30:13;55127.56;;;-146.31;71.77
2036;BME280;23642;42.658;23.350;2023-02-19T02:32:45;55121.34;;;-146.31;71.24
2036;BME280;23642;42.658;23.350;2023-02-19T02:35:19;55100.72;;;-146.31;69.19
2036;BME280;23642;42.658;23.350;2023-02-19T02:37:48;55135.81;;;-146.31;70.09
2036;BME280;23642;42.658;23.350;2023-02-19T02:40:17;55096.56;;;-146.31;69.55
2036;BME280;23642;42.658;23.350;2023-02-19T02:42:44;55131.69;;;-146.31;69.53
2036;BME280;23642;42.658;23.350;2023-02-19T02:45:28;55148.22;;;-146.31;70.44
2036;BME280;23642;42.658;23.350;2023-02-19T02:48:07;55113.09;;;-146.31;71.30
2036;BME280;23642;42.658;23.350;2023-02-19T02:50:38;55125.50;;;-146.31;71.56
2036;BME280;23642;42.658;23.350;2023-02-19T02:53:10;55139.94;;;-146.31;70.53
2036;BME280;23642;42.658;23.350;2023-02-19T02:55:53;55096.56;;;-146.31;71.47
2036;BME280;23642;42.658;23.350;2023-02-19T02:58:22;55096.56;;;-146.31;71.45
2036;BME280;23642;42.658;23.350;2023-02-19T03:00:54;55108.97;;;-146.31;71.15
2036;BME280;23642;42.658;23.350;2023-02-19T03:03:41;55075.91;;;-146.31;70.15
2036;BME280;23642;42.658;23.350;2023-02-19T03:06:10;55108.97;;;-146.31;70.00
2036;BME280;23642;42.658;23.350;2023-02-19T03:08:40;55071.78;;;-146.31;69.85
2036;BME280;23642;42.658;23.350;2023-02-19T03:11:10;55100.72;;;-146.31;70.31
2036;BME280;23642;42.658;23.350;2023-02-19T03:13:59;55098.63;;;-146.31;70.25
2036;BME280;23642;42.658;23.350;2023-02-19T03:16:47;55067.66;;;-146.31;69.52
2036;BME280;23642;42.658;23.350;2023-02-19T03:19:35;55075.91;;;-146.31;70.07
2036;BME280;23642;42.658;23.350;2023-02-19T03:22:06;55078.00;;;-146.31;71.33
2036;BME280;23642;42.658;23.350;2023-02-19T03:24:38;55094.50;;;-146.31;71.00
2036;BME280;23642;42.658;23.350;2023-02-19T03:27:25;55061.47;;;-146.31;72.66
2036;BME280;23642;42.658;23.350;2023-02-19T03:29:56;55044.94;;;-146.31;69.31
2036;BME280;23642;42.658;23.350;2023-02-19T03:32:28;55069.72;;;-146.31;68.88
2036;BME280;23642;42.658;23.350;2023-02-19T03:34:59;55094.50;;;-146.31;70.07
2036;BME280;23642;42.658;23.350;2023-02-19T03:37:29;55069.72;;;-146.31;70.90
2036;BME280;23642;42.658;23.350;2023-02-19T03:39:58;55061.47;;;-146.31;70.38
2036;BME280;23642;42.658;23.350;2023-02-19T03:42:34;55096.56;;;-146.31;72.00
2036;BME280;23642;42.658;23.350;2023-02-19T03:45:13;55051.13;;;-146.31;72.40
2036;BME280;23642;42.658;23.350;2023-02-19T03:47:50;55061.47;;;-146.31;71.72
2036;BME280;23642;42.658;23.350;2023-02-19T03:50:22;55063.53;;;-146.31;73.28
2036;BME280;23642;42.658;23.350;2023-02-19T03:52:55;55088.31;;;-146.31;74.15
2036;BME280;23642;42.658;23.350;2023-02-19T03:55:28;55063.53;;;-146.31;73.86
2036;BME280;23642;42.658;23.350;2023-02-19T03:58:03;55013.97;;;-146.31;73.07
2036;BME280;23642;42.658;23.350;2023-02-19T04:00:36;55038.75;;;-146.31;73.80
2036;BME280;23642;42.658;23.350;2023-02-19T04:03:10;55034.63;;;-146.31;75.17
2036;BME280;23642;42.658;23.350;2023-02-19T04:05:46;55034.63;;;-146.31;76.50
2036;BME280;23642;42.658;23.350;2023-02-19T04:08:16;54997.44;;;-146.31;77.01
2036;BME280;23642;42.658;23.350;2023-02-19T04:10:45;54972.66;;;-146.31;76.89
2036;BME280;23642;42.658;23.350;2023-02-19T04:13:17;54985.06;;;-146.31;77.33
2036;BME280;23642;42.658;23.350;2023-02-19T04:15:46;54943.75;;;-146.31;77.30
2036;BME280;23642;42.658;23.350;2023-02-19T04:18:17;54939.63;;;-146.31;78.16
2036;BME280;23642;42.658;23.350;2023-02-19T04:20:46;54910.72;;;-146.31;77.53
2036;BME280;23642;42.658;23.350;2023-02-19T04:23:15;54904.50;;;-146.31;77.72
2036;BME280;23642;42.658;23.350;2023-02-19T04:25:46;54927.22;;;-146.31;77.31
2036;BME280;23642;42.658;23.350;2023-02-19T04:28:14;54914.84;;;-146.31;76.47
2036;BME280;23642;42.658;23.350;2023-02-19T04:30:44;54873.53;;;-146.31;77.72
2036;BME280;23642;42.658;23.350;2023-02-19T04:33:11;54885.94;;;-146.31;76.84
2036;BME280;23642;42.658;23.350;2023-02-19T04:35:39;54894.19;;;-146.31;77.30
2036;BME280;23642;42.658;23.350;2023-02-19T04:38:06;54877.66;;;-146.31;76.85
2036;BME280;23642;42.658;23.350;2023-02-19T04:40:32;54890.06;;;-146.31;77.70
2036;BME280;23642;42.658;23.350;2023-02-19T04:42:59;54861.16;;;-146.31;77.40
2036;BME280;23642;42.658;23.350;2023-02-19T04:45:26;54834.31;;;-146.31;76.68
2036;BME280;23642;42.658;23.350;2023-02-19T04:47:52;54836.38;;;-146.31;76.71
2036;BME280;23642;42.658;23.350;2023-02-19T04:50:19;54865.28;;;-146.31;75.71
2036;BME280;23642;42.658;23.350;2023-02-19T04:52:48;54821.91;;;-146.31;76.15
2036;BME280;23642;42.658;23.350;2023-02-19T04:55:15;54830.16;;;-146.31;76.36
2036;BME280;23642;42.658;23.350;2023-02-19T04:57:42;54815.72;;;-146.31;75.25
2036;BME280;23642;42.658;23.350;2023-02-19T05:00:11;54821.91;;;-146.31;75.43
2036;BME280;23642;42.658;23.350;2023-02-19T05:02:38;54795.06;;;-146.31;74.37
2036;BME280;23642;42.658;23.350;2023-02-19T05:05:05;54857.03;;;-146.31;75.09
2036;BME280;23642;42.658;23.350;2023-02-19T05:07:32;54844.63;;;-146.31;75.36
2036;BME280;23642;42.658;23.350;2023-02-19T05:10:00;54826.03;;;-146.31;74.87
2036;BME280;23642;42.658;23.350;2023-02-19T05:12:28;54867.34;;;-146.31;75.31
2036;BME280;23642;42.658;23.350;2023-02-19T05:14:55;54838.44;;;-146.31;76.57
2036;BME280;23642;42.658;23.350;2023-02-19T05:17:21;54832.25;;;-146.31;75.93
2036;BME280;23642;42.658;23.350;2023-02-19T05:19:48;54803.31;;;-146.31;76.07
2036;BME280;23642;42.658;23.350;2023-02-19T05:22:15;54807.47;;;-146.31;76.02
2036;BME280;23642;42.658;23.350;2023-02-19T05:24:42;54778.53;;;-146.31;75.16
2036;BME280;23642;42.658;23.350;2023-02-19T05:27:10;54799.19;;;-146.31;74.94
2036;BME280;23642;42.658;23.350;2023-02-19T05:29:36;54790.94;;;-146.31;74.78
2036;BME280;23642;42.658;23.350;2023-02-19T05:32:03;54757.91;;;-146.31;73.52
2036;BME280;23642;42.658;23.350;2023-02-19T05:34:30;54803.31;;;-146.31;73.50
2036;BME280;23642;42.658;23.350;2023-02-19T05:36:57;54753.75;;;-146.31;71.79
2036;BME280;23642;42.658;23.350;2023-02-19T05:39:23;54786.81;;;-146.31;70.55
2036;BME280;23642;42.658;23.350;2023-02-19T05:41:51;54786.81;;;-146.31;69.61
2036;BME280;23642;42.658;23.350;2023-02-19T05:44:19;54817.78;;;-146.31;70.38
2036;BME280;23642;42.658;23.350;2023-02-19T05:46:46;54809.53;;;-146.31;69.54
2036;BME280;23642;42.658;23.350;2023-02-19T05:49:13;54805.38;;;-146.31;69.86
2036;BME280;23642;42.658;23.350;2023-02-19T05:51:39;54799.19;;;-146.31;70.05
2036;BME280;23642;42.658;23.350;2023-02-19T05:54:06;54799.19;;;-146.31;70.10
2036;BME280;23642;42.658;23.350;2023-02-19T05:56:34;54799.19;;;-146.31;69.51
2036;BME280;23642;42.658;23.350;2023-02-19T05:59:03;54813.66;;;-146.31;69.58
2036;BME280;23642;42.658;23.350;2023-02-19T06:01:33;54807.47;;;-146.31;69.10
2036;BME280;23642;42.658;23.350;2023-02-19T06:04:01;54770.28;;;-146.31;67.25
2036;BME280;23642;42.658;23.350;2023-02-19T06:06:28;54770.28;;;-146.31;64.98
2036;BME280;23642;42.658;23.350;2023-02-19T06:08:54;54770.28;;;-146.31;64.45
2036;BME280;23642;42.658;23.350;2023-02-19T06:11:22;54764.09;;;-146.31;64.35
2036;BME280;23642;42.658;23.350;2023-02-19T06:13:49;54786.81;;;-146.31;64.50
2036;BME280;23642;42.658;23.350;2023-02-19T06:16:16;54751.69;;;-146.31;61.27
2036;BME280;23642;42.658;23.350;2023-02-19T06:18:44;54770.28;;;-146.31;61.18
2036;BME280;23642;42.658;23.350;2023-02-19T06:21:11;54784.75;;;-146.31;61.03
2036;BME280;23642;42.658;23.350;2023-02-19T06:23:38;54780.59;;;-146.31;60.14
2036;BME280;23642;42.658;23.350;2023-02-19T06:26:10;54803.31;;;-146.31;59.25
2036;BME280;23642;42.658;23.350;2023-02-19T06:28:38;54782.69;;;-146.31;58.75
2036;BME280;23642;42.658;23.350;2023-02-19T06:31:06;54784.75;;;-146.31;57.83
2036;BME280;23642;42.658;23.350;2023-02-19T06:33:33;54774.41;;;-146.31;57.03
2036;BME280;23642;42.658;23.350;2023-02-19T06:36:03;54776.47;;;-146.31;56.22
2036;BME280;23642;42.658;23.350;2023-02-19T06:38:30;54782.69;;;-146.31;56.34
2036;BME280;23642;42.658;23.350;2023-02-19T06:40:59;54795.06;;;-146.31;55.93
2036;BME280;23642;42.658;23.350;2023-02-19T06:43:26;54799.19;;;-146.31;56.18
2036;BME280;23642;42.658;23.350;2023-02-19T06:45:53;54786.81;;;-146.31;55.78
2036;BME280;23642;42.658;23.350;2023-02-19T06:48:20;54753.75;;;-146.31;54.96
2036;BME280;23642;42.658;23.350;2023-02-19T06:50:47;54753.75;;;-146.31;54.36
2036;BME280;23642;42.658;23.350;2023-02-19T06:53:15;54747.56;;;-146.31;54.26
2036;BME280;23642;42.658;23.350;2023-02-19T06:55:42;54778.53;;;-146.31;53.04
2036;BME280;23642;42.658;23.350;2023-02-19T06:58:08;54762.03;;;-146.31;51.91
2036;BME280;23642;42.658;23.350;2023-02-19T07:00:35;54762.03;;;-146.31;51.83
2036;BME280;23642;42.658;23.350;2023-02-19T07:03:02;54735.19;;;-146.31;50.86
2036;BME280;23642;42.658;23.350;2023-02-19T07:05:29;54772.34;;;-146.31;50.72
2036;BME280;23642;42.658;23.350;2023-02-19T07:07:56;54762.03;;;-146.31;50.48
2036;BME280;23642;42.658;23.350;2023-02-19T07:10:24;54797.13;;;-146.31;50.56
2036;BME280;23642;42.658;23.350;2023-02-19T07:12:50;54795.06;;;-146.31;49.85
2036;BME280;23642;42.658;23.350;2023-02-19T07:15:17;54807.47;;;-146.31;49.77
2036;BME280;23642;42.658;23.350;2023-02-19T07:17:44;54826.03;;;-146.31;49.44
2036;BME280;23642;42.658;23.350;2023-02-19T07:20:11;54817.78;;;-146.31;49.78
2036;BME280;23642;42.658;23.350;2023-02-19T07:22:38;54826.03;;;-146.31;49.04
2036;BME280;23642;42.658;23.350;2023-02-19T07:25:05;54834.31;;;-146.31;49.02
2036;BME280;23642;42.658;23.350;2023-02-19T07:27:33;54836.38;;;-146.31;48.70
2036;BME280;23642;42.658;23.350;2023-02-19T07:30:00;54815.72;;;-146.31;48.54
2036;BME280;23642;42.658;23.350;2023-02-19T07:32:27;54840.50;;;-146.31;48.39
2036;BME280;23642;42.658;23.350;2023-02-19T07:34:54;54834.31;;;-146.31;48.10
2036;BME280;23642;42.658;23.350;2023-02-19T07:37:21;54854.94;;;-146.31;48.45
2036;BME280;23642;42.658;23.350;2023-02-19T07:39:47;54826.03;;;-146.31;48.22
2036;BME280;23642;42.658;23.350;2023-02-19T07:42:14;54828.09;;;-146.31;47.69
2036;BME280;23642;42.658;23.350;2023-02-19T07:44:42;54840.50;;;-146.31;47.66
2036;BME280;23642;42.658;23.350;2023-02-19T07:47:09;54809.53;;;-146.31;47.33
2036;BME280;23642;42.658;23.350;2023-02-19T07:49:36;54813.66;;;-146.31;47.07
2036;BME280;23642;42.658;23.350;2023-02-19T07:52:03;54859.09;;;-146.31;47.14
2036;BME280;23642;42.658;23.350;2023-02-19T07:54:29;54819.84;;;-146.31;46.56
2036;BME280;23642;42.658;23.350;2023-02-19T07:56:56;54848.75;;;-146.31;46.69
2036;BME280;23642;42.658;23.350;2023-02-19T07:59:24;54805.38;;;-146.31;46.19
2036;BME280;23642;42.658;23.350;2023-02-19T08:01:52;54819.84;;;-146.31;45.61
2036;BME280;23642;42.658;23.350;2023-02-19T08:04:36;54817.78;;;-146.31;45.71
2036;BME280;23642;42.658;23.350;2023-02-19T08:07:03;54795.06;;;-146.31;45.45
2036;BME280;23642;42.658;23.350;2023-02-19T08:09:30;54807.47;;;-146.31;45.15
2036;BME280;23642;42.658;23.350;2023-02-19T08:11:56;54782.69;;;-146.31;44.82
2036;BME280;23642;42.658;23.350;2023-02-19T08:14:41;54838.44;;;-146.31;44.31
2036;BME280;23642;42.658;23.350;2023-02-19T08:17:09;54838.44;;;-146.31;44.51
2036;BME280;23642;42.658;23.350;2023-02-19T08:19:35;54807.47;;;-146.31;44.39
2036;BME280;23642;42.658;23.350;2023-02-19T08:22:02;54788.88;;;-146.31;44.11
2036;BME280;23642;42.658;23.350;2023-02-19T08:24:29;54803.31;;;-146.31;44.19
2036;BME280;23642;42.658;23.350;2023-02-19T08:26:58;54832.25;;;-146.31;43.77
2036;BME280;23642;42.658;23.350;2023-02-19T08:29:25;54817.78;;;-146.31;43.81
2036;BME280;23642;42.658;23.350;2023-02-19T08:31:52;54819.84;;;-146.31;43.51
2036;BME280;23642;42.658;23.350;2023-02-19T08:34:20;54803.31;;;-146.31;43.71
2036;BME280;23642;42.658;23.350;2023-02-19T08:36:46;54848.75;;;-146.31;43.84
2036;BME280;23642;42.658;23.350;2023-02-19T08:39:13;54821.91;;;-146.31;43.31
2036;BME280;23642;42.658;23.350;2023-02-19T08:41:40;54844.63;;;-146.31;43.40
2036;BME280;23642;42.658;23.350;2023-02-19T08:44:07;54848.75;;;-146.31;43.51
2036;BME280;23642;42.658;23.350;2023-02-19T08:46:33;54859.09;;;-146.31;43.31
2036;BME280;23642;42.658;23.350;2023-02-19T08:49:00;54871.47;;;-146.31;43.64
2036;BME280;23642;42.658;23.350;2023-02-19T08:51:28;54857.03;;;-146.31;43.41
2036;BME280;23642;42.658;23.350;2023-02-19T08:53:55;54840.50;;;-146.31;43.01
2036;BME280;23642;42.658;23.350;2023-02-19T08:56:21;54834.31;;;-146.31;43.04
2036;BME280;23642;42.658;23.350;2023-02-19T08:58:48;54842.56;;;-146.31;42.92
2036;BME280;23642;42.658;23.350;2023-02-19T09:01:16;54803.31;;;-146.31;42.73
2036;BME280;23642;42.658;23.350;2023-02-19T09:03:43;54830.16;;;-146.31;42.29
2036;BME280;23642;42.658;23.350;2023-02-19T09:06:14;54809.53;;;-146.31;42.37
2036;BME280;23642;42.658;23.350;2023-02-19T09:08:43;54815.72;;;-146.31;42.37
2036;BME280;23642;42.658;23.350;2023-02-19T09:11:09;54809.53;;;-146.31;42.46
2036;BME280;23642;42.658;23.350;2023-02-19T09:13:36;54844.63;;;-146.31;42.54
2036;BME280;23642;42.658;23.350;2023-02-19T09:16:03;54863.22;;;-146.31;42.71
2036;BME280;23642;42.658;23.350;2023-02-19T09:18:30;54869.41;;;-146.31;42.39
2036;BME280;23642;42.658;23.350;2023-02-19T09:20:59;54883.88;;;-146.31;42.59
2036;BME280;23642;42.658;23.350;2023-02-19T09:23:26;54894.19;;;-146.31;42.34
2036;BME280;23642;42.658;23.350;2023-02-19T09:25:57;54908.66;;;-146.31;42.22
2036;BME280;23642;42.658;23.350;2023-02-19T09:28:26;54906.56;;;-146.31;41.91
2036;BME280;23642;42.658;23.350;2023-02-19T09:30:53;54914.84;;;-146.31;41.93
2036;BME280;23642;42.658;23.350;2023-02-19T09:33:20;54925.16;;;-146.31;42.09
2036;BME280;23642;42.658;23.350;2023-02-19T09:35:46;54931.38;;;-146.31;42.00
2036;BME280;23642;42.658;23.350;2023-02-19T09:38:13;54947.88;;;-146.31;41.71
2036;BME280;23642;42.658;23.350;2023-02-19T09:40:40;54943.75;;;-146.31;41.80
2036;BME280;23642;42.658;23.350;2023-02-19T09:43:11;54910.72;;;-146.31;41.92
2036;BME280;23642;42.658;23.350;2023-02-19T09:45:41;54958.22;;;-146.31;41.32
2036;BME280;23642;42.658;23.350;2023-02-19T09:48:08;54931.38;;;-146.31;41.25
2036;BME280;23642;42.658;23.350;2023-02-19T09:50:38;54943.75;;;-146.31;41.12
2036;BME280;23642;42.658;23.350;2023-02-19T09:53:12;54947.88;;;-146.31;41.02
2036;BME280;23642;42.658;23.350;2023-02-19T09:55:42;54939.63;;;-146.31;40.84
2036;BME280;23642;42.658;23.350;2023-02-19T09:58:21;54931.38;;;-146.31;40.53
2036;BME280;23642;42.658;23.350;2023-02-19T10:00:50;54960.28;;;-146.31;40.04
2036;BME280;23642;42.658;23.350;2023-02-19T10:03:22;54964.41;;;-146.31;39.88
2036;BME280;23642;42.658;23.350;2023-02-19T10:05:50;54987.13;;;-146.31;39.64
2036;BME280;23642;42.658;23.350;2023-02-19T10:08:19;54962.34;;;-146.31;39.07
2036;BME280;23642;42.658;23.350;2023-02-19T10:10:46;55007.78;;;-146.31;39.43
2036;BME280;23642;42.658;23.350;2023-02-19T10:13:18;54993.31;;;-146.31;39.54
2036;BME280;23642;42.658;23.350;2023-02-19T10:15:47;55018.09;;;-146.31;39.17
2036;BME280;23642;42.658;23.350;2023-02-19T10:18:16;54999.50;;;-146.31;39.12
2036;BME280;23642;42.658;23.350;2023-02-19T10:20:44;55016.03;;;-146.31;38.92
2036;BME280;23642;42.658;23.350;2023-02-19T10:23:13;55013.97;;;-146.31;38.83
2036;BME280;23642;42.658;23.350;2023-02-19T10:25:44;54972.66;;;-146.31;38.30
2036;BME280;23642;42.658;23.350;2023-02-19T10:28:14;55022.22;;;-146.31;38.30
2036;BME280;23642;42.658;23.350;2023-02-19T10:30:44;55013.97;;;-146.31;38.26
2036;BME280;23642;42.658;23.350;2023-02-19T10:33:15;55030.50;;;-146.31;38.77
2036;BME280;23642;42.658;23.350;2023-02-19T10:35:53;55016.03;;;-146.31;38.64
2036;BME280;23642;42.658;23.350;2023-02-19T10:38:23;55018.09;;;-146.31;38.70
2036;BME280;23642;42.658;23.350;2023-02-19T10:40:58;55067.66;;;-146.31;38.47
2036;BME280;23642;42.658;23.350;2023-02-19T10:43:27;55051.13;;;-146.31;38.57
2036;BME280;23642;42.658;23.350;2023-02-19T10:46:00;55059.41;;;-146.31;38.79
2036;BME280;23642;42.658;23.350;2023-02-19T10:48:29;55030.50;;;-146.31;38.40
2036;BME280;23642;42.658;23.350;2023-02-19T10:51:00;55032.56;;;-146.31;37.94
2036;BME280;23642;42.658;23.350;2023-02-19T10:53:40;55069.72;;;-146.31;37.89
2036;BME280;23642;42.658;23.350;2023-02-19T10:56:08;55042.88;;;-146.31;38.15
2036;BME280;23642;42.658;23.350;2023-02-19T10:58:36;55049.06;;;-146.31;37.76
2036;BME280;23642;42.658;23.350;2023-02-19T11:01:14;55020.16;;;-146.31;37.20
2036;BME280;23642;42.658;23.350;2023-02-19T11:03:41;55026.34;;;-146.31;37.28
2036;BME280;23642;42.658;23.350;2023-02-19T11:06:09;55034.63;;;-146.31;37.42
2036;BME280;23642;42.658;23.350;2023-02-19T11:08:46;55044.94;;;-146.31;37.16
2036;BME280;23642;42.658;23.350;2023-02-19T11:11:30;55026.34;;;-146.31;37.03
2036;BME280;23642;42.658;23.350;2023-02-19T11:14:00;55051.13;;;-146.31;37.16
2036;BME280;23642;42.658;23.350;2023-02-19T11:16:46;55020.16;;;-146.31;36.53
2036;BME280;23642;42.658;23.350;2023-02-19T11:19:23;55018.09;;;-146.31;36.72
2036;BME280;23642;42.658;23.350;2023-02-19T11:21:51;55007.78;;;-146.31;36.48
2036;BME280;23642;42.658;23.350;2023-02-19T11:24:23;55011.91;;;-146.31;36.42
2036;BME280;23642;42.658;23.350;2023-02-19T11:26:51;55018.09;;;-146.31;36.51
2036;BME280;23642;42.658;23.350;2023-02-19T11:29:20;55020.16;;;-146.31;36.36
2036;BME280;23642;42.658;23.350;2023-02-19T11:31:50;55026.34;;;-146.31;36.28
2036;BME280;23642;42.658;23.350;2023-02-19T11:34:29;55022.22;;;-146.31;36.01
2036;BME280;23642;42.658;23.350;2023-02-19T11:37:10;55005.72;;;-146.31;35.62
2036;BME280;23642;42.658;23.350;2023-02-19T11:39:39;55044.94;;;-146.31;35.39
2036;BME280;23642;42.658;23.350;2023-02-19T11:42:32;55005.72;;;-146.31;35.25
2036;BME280;23642;42.658;23.350;2023-02-19T11:45:21;55036.69;;;-146.31;35.18
2036;BME280;23642;42.658;23.350;2023-02-19T11:48:32;55040.81;;;-146.31;35.01
2036;BME280;23642;42.658;23.350;2023-02-19T11:51:14;55075.91;;;-146.31;34.65
2036;BME280;23642;42.658;23.350;2023-02-19T11:53:47;55055.28;;;-146.31;34.87
2036;BME280;23642;42.658;23.350;2023-02-19T11:56:18;55022.22;;;-146.31;34.69
2036;BME280;23642;42.658;23.350;2023-02-19T11:59:02;55067.66;;;-146.31;33.72
2036;BME280;23642;42.658;23.350;2023-02-19T12:01:52;55049.06;;;-146.31;33.89
2036;BME280;23642;42.658;23.350;2023-02-19T12:04:44;55026.34;;;-146.31;33.77
2036;BME280;23642;42.658;23.350;2023-02-19T12:07:23;55047.00;;;-146.31;33.69
2036;BME280;23642;42.658;23.350;2023-02-19T12:10:02;55032.56;;;-146.31;35.12
2036;BME280;23642;42.658;23.350;2023-02-19T12:12:40;55051.13;;;-146.31;34.43
2036;BME280;23642;42.658;23.350;2023-02-19T12:15:24;55022.22;;;-146.31;34.86
2036;BME280;23642;42.658;23.350;2023-02-19T12:20:56;55030.50;;;-146.31;34.97
2036;BME280;23642;42.658;23.350;2023-02-19T12:23:51;54995.38;;;-146.31;34.73
2036;BME280;23642;42.658;23.350;2023-02-19T12:26:24;54989.19;;;-146.31;34.81
2036;BME280;23642;42.658;23.350;2023-02-19T12:29:26;54993.31;;;-146.31;34.97
2036;BME280;23642;42.658;23.350;2023-02-19T12:32:25;54949.94;;;-146.31;34.47
2036;BME280;23642;42.658;23.350;2023-02-19T12:35:19;54989.19;;;-146.31;34.19
2036;BME280;23642;42.658;23.350;2023-02-19T12:37:58;54972.66;;;-146.31;35.02
2036;BME280;23642;42.658;23.350;2023-02-19T12:40:37;54995.38;;;-146.31;34.62
2036;BME280;23642;42.658;23.350;2023-02-19T12:43:12;55001.56;;;-146.31;34.87
2036;BME280;23642;42.658;23.350;2023-02-19T12:45:45;54976.78;;;-146.31;34.83
2036;BME280;23642;42.658;23.350;2023-02-19T12:48:19;54978.84;;;-146.31;34.74
2036;BME280;23642;42.658;23.350;2023-02-19T12:50:52;54987.13;;;-146.31;34.30
2036;BME280;23642;42.658;23.350;2023-02-19T12:53:33;54991.25;;;-146.31;34.70
2036;BME280;23642;42.658;23.350;2023-02-19T12:56:06;54972.66;;;-146.31;34.37
2036;BME280;23642;42.658;23.350;2023-02-19T12:58:39;55005.72;;;-146.31;34.57
2036;BME280;23642;42.658;23.350;2023-02-19T13:01:09;54970.59;;;-146.31;34.13
2036;BME280;23642;42.658;23.350;2023-02-19T13:03:40;55030.50;;;-146.31;33.75